createdAt,value
2022-12-17T00:00:42.327Z,94.69
2022-12-17T00:05:17.738Z,95.13
2022-12-17T00:09:53.527Z,94.98
2022-12-17T00:14:31.824Z,95.08
2022-12-17T00:19:07.423Z,94.75
2022-12-17T00:23:42.970Z,92.77
2022-12-17T00:28:19.208Z,93.38
2022-12-17T00:32:54.959Z,92.98
2022-12-17T00:37:30.538Z,94.48
2022-12-17T00:42:05.900Z,95.33
2022-12-17T00:46:41.574Z,94.71
2022-12-17T00:51:17.173Z,94.43
2022-12-17T00:55:52.728Z,92.83
2022-12-17T01:00:29.238Z,94.96
2022-12-17T01:05:05.345Z,93.98
2022-12-17T01:09:40.818Z,92.38
2022-12-17T01:14:16.487Z,93.24
2022-12-17T01:18:52.059Z,94.15
2022-12-17T01:23:28.066Z,93.47
2022-12-17T01:28:07.921Z,95.04
2022-12-17T01:32:43.535Z,92.72
2022-12-17T01:37:18.898Z,93.70
2022-12-17T01:41:55.129Z,94.92
2022-12-17T01:46:32.666Z,94.40
2022-12-17T01:51:15.330Z,92.77
2022-12-17T01:55:51.038Z,93.69
2022-12-17T02:00:31.361Z,93.94
2022-12-17T02:05:06.794Z,94.12
2022-12-17T02:10:01.781Z,93.34
2022-12-17T02:14:37.125Z,94.33
2022-12-17T02:19:24.831Z,94.92
2022-12-17T02:24:25.500Z,92.37
2022-12-17T02:29:07.367Z,94.70
2022-12-17T02:33:43.623Z,92.93
2022-12-17T02:38:18.983Z,93.31
2022-12-17T02:42:55.530Z,93.02
2022-12-17T02:47:32.849Z,94.29
2022-12-17T02:52:09.455Z,93.60
2022-12-17T02:56:44.834Z,95.09
2022-12-17T03:01:21.036Z,93.62
2022-12-17T03:05:56.929Z,92.35
2022-12-17T03:10:32.697Z,93.10
2022-12-17T03:15:08.317Z,93.00
2022-12-17T03:19:43.913Z,92.85
2022-12-17T03:24:19.386Z,93.46
2022-12-17T03:28:54.956Z,92.96
2022-12-17T03:33:30.570Z,93.61
2022-12-17T03:38:06.190Z,92.58
2022-12-17T03:42:41.572Z,93.53
2022-12-17T03:47:17.236Z,94.11
2022-12-17T03:51:53.029Z,94.83
2022-12-17T03:56:28.504Z,92.82
2022-12-17T04:01:04.118Z,93.81
2022-12-17T04:23:20.815Z,94.24
2022-12-17T04:27:56.634Z,93.20
2022-12-17T04:32:35.376Z,94.19
2022-12-17T04:37:11.360Z,93.86
2022-12-17T04:41:47.616Z,93.94
2022-12-17T04:46:23.181Z,92.77
2022-12-17T04:50:59.044Z,93.58
2022-12-17T04:55:34.733Z,93.62
2022-12-17T05:00:10.382Z,93.41
2022-12-17T05:04:45.975Z,93.19
2022-12-17T05:09:22.075Z,92.92
2022-12-17T05:13:57.704Z,93.92
2022-12-17T05:18:33.605Z,92.75
2022-12-17T05:23:09.187Z,92.81
2022-12-17T05:27:45.013Z,93.76
2022-12-17T05:32:20.416Z,93.01
2022-12-17T05:36:56.244Z,94.68
2022-12-17T05:41:31.962Z,94.16
2022-12-17T05:46:08.979Z,92.57
2022-12-17T05:50:44.770Z,92.47
2022-12-17T05:55:20.455Z,92.15
2022-12-17T05:59:56.031Z,93.32
2022-12-17T06:04:32.011Z,92.54
2022-12-17T06:09:07.430Z,93.63
2022-12-17T06:13:44.457Z,94.01
2022-12-17T06:18:20.097Z,92.34
2022-12-17T06:22:55.806Z,92.97
2022-12-17T06:27:31.477Z,92.95
2022-12-17T06:32:07.326Z,94.68
2022-12-17T06:36:42.964Z,93.79
2022-12-17T06:41:27.126Z,93.57
2022-12-17T06:46:02.779Z,92.20
2022-12-17T06:50:38.747Z,94.27
2022-12-17T06:55:14.608Z,93.52
2022-12-17T06:59:50.322Z,92.94
2022-12-17T07:04:26.342Z,93.19
2022-12-17T07:09:01.887Z,92.55
2022-12-17T07:13:37.983Z,92.91
2022-12-17T07:18:19.795Z,93.07
2022-12-17T07:22:55.632Z,92.95
2022-12-17T07:27:31.376Z,94.19
2022-12-17T07:32:17.574Z,93.76
2022-12-17T07:36:53.591Z,90.83
2022-12-17T07:41:29.346Z,90.45
2022-12-17T07:46:05.243Z,90.01
2022-12-17T07:50:40.775Z,89.88
2022-12-17T07:55:18.399Z,90.99
2022-12-17T07:59:54.106Z,88.75
2022-12-17T08:04:30.206Z,90.55
2022-12-17T08:09:05.921Z,89.53
2022-12-17T08:13:41.715Z,91.07
2022-12-17T08:18:26.781Z,91.72
2022-12-17T08:23:02.722Z,89.74
2022-12-17T08:27:38.407Z,90.49
2022-12-17T08:32:14.020Z,90.38
2022-12-17T08:36:49.849Z,90.80
2022-12-17T08:41:25.473Z,90.87
2022-12-17T08:46:09.765Z,90.94
2022-12-17T08:50:45.473Z,89.60
2022-12-17T08:55:21.256Z,89.10
2022-12-17T08:59:56.822Z,90.69
2022-12-17T09:04:32.633Z,89.68
2022-12-17T09:09:08.323Z,90.08
2022-12-17T09:13:44.060Z,88.41
2022-12-17T09:18:19.771Z,89.93
2022-12-17T09:22:55.691Z,89.96
2022-12-17T09:27:31.497Z,87.38
2022-12-17T09:32:07.321Z,90.35
2022-12-17T09:36:48.039Z,89.14
2022-12-17T09:41:48.409Z,86.98
2022-12-17T09:46:52.101Z,87.41
2022-12-17T09:51:49.360Z,88.30
2022-12-17T09:56:28.690Z,87.98
2022-12-17T10:01:04.803Z,86.52
2022-12-17T10:05:45.627Z,86.57
2022-12-17T10:10:43.837Z,85.09
2022-12-17T10:15:20.008Z,88.32
2022-12-17T10:20:00.905Z,86.45
2022-12-17T10:24:37.083Z,88.79
2022-12-17T10:29:28.220Z,85.45
2022-12-17T10:34:04.638Z,85.67
2022-12-17T10:38:44.578Z,87.17
2022-12-17T10:43:20.136Z,87.10
2022-12-17T10:48:03.170Z,88.23
2022-12-17T10:52:50.742Z,89.68
2022-12-17T10:57:27.714Z,86.63
2022-12-17T11:02:03.217Z,85.47
2022-12-17T11:06:49.935Z,86.36
2022-12-17T11:11:31.191Z,88.17
2022-12-17T11:16:13.356Z,86.90
2022-12-17T11:21:33.921Z,86.57
2022-12-17T11:26:25.221Z,88.46
2022-12-17T11:31:13.374Z,87.91
2022-12-17T11:36:11.245Z,86.13
2022-12-17T11:40:57.420Z,87.94
2022-12-17T11:45:52.544Z,90.27
2022-12-17T11:51:11.174Z,89.44
2022-12-17T11:56:19.516Z,88.10
2022-12-17T12:01:20.774Z,90.15
2022-12-17T12:06:12.462Z,89.56
2022-12-17T12:11:09.315Z,90.15
2022-12-17T12:16:18.727Z,88.02
2022-12-17T12:21:24.594Z,91.83
2022-12-17T12:26:32.797Z,89.90
2022-12-17T12:31:19.924Z,89.43
2022-12-17T12:35:57.144Z,89.77
2022-12-17T12:40:53.988Z,89.09
2022-12-17T12:45:49.935Z,89.60
2022-12-17T12:50:41.331Z,89.21
2022-12-17T12:55:17.082Z,91.17
2022-12-17T12:59:54.245Z,91.54
2022-12-17T13:04:53.556Z,90.75
2022-12-17T13:09:16.469Z,89.02
2022-12-17T13:13:56.319Z,89.66
2022-12-17T13:18:37.928Z,91.76
2022-12-17T13:23:09.358Z,90.77
2022-12-17T13:27:33.999Z,90.28
2022-12-17T13:32:20.785Z,91.39
2022-12-17T13:36:55.244Z,90.60
2022-12-17T13:41:27.760Z,91.14
2022-12-17T13:45:44.916Z,91.64
2022-12-17T13:50:35.655Z,90.95
2022-12-17T13:54:54.021Z,92.19
2022-12-17T13:59:24.213Z,90.93
2022-12-17T14:04:06.169Z,91.05
2022-12-17T14:08:29.397Z,91.28
2022-12-17T14:12:47.224Z,91.75
2022-12-17T14:17:04.822Z,91.21
2022-12-17T14:21:22.696Z,90.75
2022-12-17T14:25:42.978Z,91.71
2022-12-17T14:30:00.975Z,92.81
2022-12-17T14:34:18.071Z,92.51
2022-12-17T14:38:39.440Z,93.44
2022-12-17T14:43:01.724Z,91.97
2022-12-17T14:47:32.554Z,93.49
2022-12-17T14:51:50.483Z,92.53
2022-12-17T14:56:23.291Z,91.80
2022-12-17T15:00:51.042Z,92.47
2022-12-17T15:05:16.647Z,91.46
2022-12-17T15:09:38.163Z,92.34
2022-12-17T15:13:56.799Z,92.59
2022-12-17T15:18:14.613Z,94.29
2022-12-17T15:22:31.647Z,92.77
2022-12-17T15:26:49.476Z,91.72
2022-12-17T15:31:06.516Z,91.97
2022-12-17T15:35:23.830Z,91.75
2022-12-17T15:39:40.878Z,92.68
2022-12-17T15:43:57.969Z,91.96
2022-12-17T15:48:21.736Z,92.47
2022-12-17T15:52:38.907Z,92.31
2022-12-17T15:56:56.687Z,92.84
2022-12-17T16:01:13.825Z,91.88
2022-12-17T16:05:31.189Z,92.62
2022-12-17T16:09:48.067Z,92.23
2022-12-17T16:14:05.105Z,92.53
2022-12-17T16:18:23.651Z,92.03
2022-12-17T16:22:40.708Z,92.15
2022-12-17T16:27:04.058Z,92.43
2022-12-17T16:31:21.651Z,92.50
2022-12-17T16:35:38.545Z,91.98
2022-12-17T16:39:59.936Z,92.27
2022-12-17T16:44:17.371Z,93.28
2022-12-17T16:48:39.287Z,92.45
2022-12-17T16:52:56.545Z,92.81
2022-12-17T16:57:13.607Z,91.55
2022-12-17T17:01:32.127Z,92.49
2022-12-17T17:05:49.696Z,92.02
2022-12-17T17:10:07.064Z,92.42
2022-12-17T17:14:24.792Z,92.72
2022-12-17T17:18:42.184Z,92.19
2022-12-17T17:22:59.948Z,92.37
2022-12-17T17:27:16.817Z,92.59
2022-12-17T17:32:08.356Z,92.66
2022-12-17T17:36:32.608Z,92.23
2022-12-17T17:40:56.287Z,91.86
2022-12-17T17:45:13.243Z,91.78
2022-12-17T17:49:30.581Z,92.08
2022-12-17T17:53:50.199Z,92.70
2022-12-17T17:58:07.788Z,92.29
2022-12-17T18:02:24.781Z,91.11
2022-12-17T18:07:16.041Z,91.24
2022-12-17T18:11:23.962Z,91.62
2022-12-17T18:15:41.327Z,91.84
2022-12-17T18:19:58.540Z,92.35
2022-12-17T18:24:22.837Z,91.79
2022-12-17T18:28:41.282Z,91.50
2022-12-17T18:32:58.013Z,92.17
2022-12-17T18:37:15.194Z,92.33
2022-12-17T18:41:50.673Z,92.44
2022-12-17T18:46:08.085Z,92.48
2022-12-17T18:50:24.991Z,92.49
2022-12-17T18:54:42.187Z,92.37
2022-12-17T18:58:59.878Z,93.53
2022-12-17T19:03:16.797Z,92.63
2022-12-17T19:07:34.150Z,93.25
2022-12-17T19:11:52.414Z,92.99
2022-12-17T19:16:19.398Z,93.27
2022-12-17T19:20:36.317Z,93.35
2022-12-17T19:24:53.425Z,93.15
2022-12-17T19:29:13.016Z,92.99
2022-12-17T19:33:30.254Z,93.15
2022-12-17T19:37:47.187Z,93.20
2022-12-17T19:42:04.477Z,93.48
2022-12-17T19:46:21.891Z,93.12
2022-12-17T19:50:39.124Z,93.27
2022-12-17T19:54:55.965Z,93.34
2022-12-17T19:59:14.379Z,93.31
2022-12-17T20:03:31.226Z,92.94
2022-12-17T20:07:49.968Z,93.01
2022-12-17T20:12:07.032Z,92.60
2022-12-17T20:16:24.341Z,92.70
2022-12-17T20:20:41.243Z,92.48
2022-12-17T20:24:58.917Z,92.88
2022-12-17T20:29:15.962Z,92.51
2022-12-17T20:33:33.508Z,92.52
2022-12-17T20:37:50.371Z,92.17
2022-12-17T20:42:07.808Z,91.67
2022-12-17T20:46:25.687Z,92.64
2022-12-17T20:50:43.766Z,91.68
2022-12-17T20:55:00.640Z,91.52
2022-12-17T20:59:19.358Z,92.39
2022-12-17T21:03:36.860Z,91.52
2022-12-17T21:07:54.342Z,91.65
2022-12-17T21:12:13.530Z,91.61
2022-12-17T21:16:31.990Z,91.41
2022-12-17T21:20:59.061Z,91.41
2022-12-17T21:25:16.406Z,91.56
2022-12-17T21:29:33.362Z,91.73
2022-12-17T21:33:54.060Z,91.47
2022-12-17T21:38:11.291Z,90.86
2022-12-17T21:42:47.290Z,91.22
2022-12-17T21:47:05.085Z,92.64
2022-12-17T21:51:22.474Z,91.31
2022-12-17T21:55:39.735Z,91.02
2022-12-17T21:59:57.176Z,91.42
2022-12-17T22:04:14.220Z,90.97
2022-12-17T22:08:32.970Z,91.59
2022-12-17T22:13:09.655Z,90.70
2022-12-17T22:17:26.767Z,90.46
2022-12-17T22:21:44.992Z,90.85
2022-12-17T22:26:02.112Z,91.08
2022-12-17T22:30:37.972Z,90.79
2022-12-17T22:36:18.061Z,91.07
2022-12-17T22:44:29.444Z,91.03
2022-12-17T22:44:35.710Z,90.28
2022-12-17T22:48:47.194Z,90.66
2022-12-17T22:53:04.559Z,91.50
2022-12-17T22:57:35.730Z,90.70
2022-12-17T23:01:55.134Z,91.02
2022-12-17T23:06:17.694Z,90.71
2022-12-17T23:10:35.325Z,91.56
2022-12-17T23:14:52.221Z,91.46
2022-12-17T23:19:09.682Z,90.37
2022-12-17T23:23:26.646Z,90.86
2022-12-17T23:27:46.014Z,91.04
2022-12-17T23:32:03.096Z,90.82
2022-12-17T23:36:24.102Z,90.58
2022-12-17T23:40:41.026Z,90.45
2022-12-17T23:44:58.178Z,90.75
2022-12-17T23:49:15.060Z,90.41
2022-12-17T23:53:33.595Z,90.67
2022-12-17T23:57:50.610Z,90.71
